sensor_id;sensor_type;location;lat;lon;timestamp;P1;durP1;ratioP1;P2;durP2;ratioP2
55346;SDS011;41218;55.700;38.270;2022-09-17T00:01:59;10.10;;;5.00;;
55346;SDS011;41218;55.700;38.270;2022-09-17T00:06:59;11.10;;;5.40;;
55346;SDS011;41218;55.700;38.270;2022-09-17T00:12:00;11.03;;;5.60;;
55346;SDS011;41218;55.700;38.270;2022-09-17T00:17:01;11.70;;;5.80;;
55346;SDS011;41218;55.700;38.270;2022-09-17T00:22:02;13.75;;;6.18;;
55346;SDS011;41218;55.700;38.270;2022-09-17T00:27:02;13.20;;;6.40;;
55346;SDS011;41218;55.700;38.270;2022-09-17T00:32:03;11.13;;;5.87;;
55346;SDS011;41218;55.700;38.270;2022-09-17T00:37:03;10.63;;;5.57;;
55346;SDS011;41218;55.700;38.270;2022-09-17T00:42:04;10.47;;;5.53;;
55346;SDS011;41218;55.700;38.270;2022-09-17T00:47:11;9.68;;;5.38;;
55346;SDS011;41218;55.700;38.270;2022-09-17T00:52:30;9.95;;;5.55;;
55346;SDS011;41218;55.700;38.270;2022-09-17T00:57:33;11.02;;;5.50;;
55346;SDS011;41218;55.700;38.270;2022-09-17T01:02:34;10.20;;;5.18;;
55346;SDS011;41218;55.700;38.270;2022-09-17T01:12:58;8.25;;;5.38;;
55346;SDS011;41218;55.700;38.270;2022-09-17T01:34:19;10.00;;;5.43;;
55346;SDS011;41218;55.700;38.270;2022-09-17T01:40:27;7.47;;;4.90;;
55346;SDS011;41218;55.700;38.270;2022-09-17T01:56:04;10.63;;;5.25;;
55346;SDS011;41218;55.700;38.270;2022-09-17T02:01:09;6.88;;;4.50;;
55346;SDS011;41218;55.700;38.270;2022-09-17T02:06:14;7.15;;;4.53;;
55346;SDS011;41218;55.700;38.270;2022-09-17T02:11:20;8.02;;;4.57;;
55346;SDS011;41218;55.700;38.270;2022-09-17T02:16:25;8.02;;;4.80;;
55346;SDS011;41218;55.700;38.270;2022-09-17T02:27:00;8.15;;;4.22;;
55346;SDS011;41218;55.700;38.270;2022-09-17T02:32:02;8.85;;;4.50;;
55346;SDS011;41218;55.700;38.270;2022-09-17T02:37:03;8.23;;;4.75;;
55346;SDS011;41218;55.700;38.270;2022-09-17T02:57:45;7.45;;;4.60;;
55346;SDS011;41218;55.700;38.270;2022-09-17T03:03:20;7.72;;;4.78;;
55346;SDS011;41218;55.700;38.270;2022-09-17T03:08:16;7.60;;;4.60;;
55346;SDS011;41218;55.700;38.270;2022-09-17T03:13:20;7.38;;;4.60;;
55346;SDS011;41218;55.700;38.270;2022-09-17T03:18:20;7.37;;;4.60;;
55346;SDS011;41218;55.700;38.270;2022-09-17T03:23:21;8.87;;;4.33;;
55346;SDS011;41218;55.700;38.270;2022-09-17T03:28:21;6.53;;;4.50;;
55346;SDS011;41218;55.700;38.270;2022-09-17T03:33:22;9.50;;;4.47;;
55346;SDS011;41218;55.700;38.270;2022-09-17T03:38:23;8.73;;;4.93;;
55346;SDS011;41218;55.700;38.270;2022-09-17T03:43:24;6.83;;;4.57;;
55346;SDS011;41218;55.700;38.270;2022-09-17T03:48:24;6.70;;;4.70;;
55346;SDS011;41218;55.700;38.270;2022-09-17T03:53:25;7.53;;;4.57;;
55346;SDS011;41218;55.700;38.270;2022-09-17T03:58:27;7.23;;;4.30;;
55346;SDS011;41218;55.700;38.270;2022-09-17T04:03:29;8.57;;;4.43;;
55346;SDS011;41218;55.700;38.270;2022-09-17T04:08:31;7.70;;;4.22;;
55346;SDS011;41218;55.700;38.270;2022-09-17T04:13:31;6.87;;;4.63;;
55346;SDS011;41218;55.700;38.270;2022-09-17T04:18:32;6.93;;;4.30;;
55346;SDS011;41218;55.700;38.270;2022-09-17T04:23:33;7.33;;;4.30;;
55346;SDS011;41218;55.700;38.270;2022-09-17T04:28:33;7.53;;;4.50;;
55346;SDS011;41218;55.700;38.270;2022-09-17T04:33:34;7.10;;;4.37;;
55346;SDS011;41218;55.700;38.270;2022-09-17T04:38:34;7.13;;;4.33;;
55346;SDS011;41218;55.700;38.270;2022-09-17T04:43:35;9.80;;;4.70;;
55346;SDS011;41218;55.700;38.270;2022-09-17T04:48:36;8.43;;;4.80;;
55346;SDS011;41218;55.700;38.270;2022-09-17T04:53:36;8.63;;;4.72;;
55346;SDS011;41218;55.700;38.270;2022-09-17T04:58:37;10.97;;;4.60;;
55346;SDS011;41218;55.700;38.270;2022-09-17T05:03:38;8.65;;;5.10;;
55346;SDS011;41218;55.700;38.270;2022-09-17T05:08:39;10.67;;;5.57;;
55346;SDS011;41218;55.700;38.270;2022-09-17T05:13:39;9.00;;;5.60;;
55346;SDS011;41218;55.700;38.270;2022-09-17T05:18:40;9.83;;;5.93;;
55346;SDS011;41218;55.700;38.270;2022-09-17T05:23:40;12.40;;;5.10;;
55346;SDS011;41218;55.700;38.270;2022-09-17T05:28:41;9.33;;;5.63;;
55346;SDS011;41218;55.700;38.270;2022-09-17T05:33:41;10.55;;;6.18;;
55346;SDS011;41218;55.700;38.270;2022-09-17T05:38:42;9.60;;;5.60;;
55346;SDS011;41218;55.700;38.270;2022-09-17T05:43:42;9.07;;;5.67;;
55346;SDS011;41218;55.700;38.270;2022-09-17T05:48:43;10.63;;;5.60;;
55346;SDS011;41218;55.700;38.270;2022-09-17T05:53:43;8.60;;;5.40;;
55346;SDS011;41218;55.700;38.270;2022-09-17T05:58:44;8.37;;;5.60;;
55346;SDS011;41218;55.700;38.270;2022-09-17T06:03:44;12.97;;;5.77;;
55346;SDS011;41218;55.700;38.270;2022-09-17T06:08:45;8.30;;;5.30;;
55346;SDS011;41218;55.700;38.270;2022-09-17T06:13:45;8.83;;;5.00;;
55346;SDS011;41218;55.700;38.270;2022-09-17T06:18:46;9.17;;;5.00;;
55346;SDS011;41218;55.700;38.270;2022-09-17T06:23:47;8.67;;;4.63;;
55346;SDS011;41218;55.700;38.270;2022-09-17T06:28:48;11.80;;;4.88;;
55346;SDS011;41218;55.700;38.270;2022-09-17T06:33:51;8.63;;;4.67;;
55346;SDS011;41218;55.700;38.270;2022-09-17T07:16:51;6.55;;;3.30;;
55346;SDS011;41218;55.700;38.270;2022-09-17T07:22:18;5.28;;;3.05;;
55346;SDS011;41218;55.700;38.270;2022-09-17T07:27:26;5.85;;;3.20;;
55346;SDS011;41218;55.700;38.270;2022-09-17T07:32:28;4.82;;;2.90;;
55346;SDS011;41218;55.700;38.270;2022-09-17T07:37:35;5.32;;;2.88;;
55346;SDS011;41218;55.700;38.270;2022-09-17T07:42:36;4.63;;;2.75;;
55346;SDS011;41218;55.700;38.270;2022-09-17T07:47:39;4.68;;;2.45;;
55346;SDS011;41218;55.700;38.270;2022-09-17T07:53:16;3.85;;;2.45;;
55346;SDS011;41218;55.700;38.270;2022-09-17T07:58:23;5.60;;;2.22;;
55346;SDS011;41218;55.700;38.270;2022-09-17T08:09:08;4.60;;;2.40;;
55346;SDS011;41218;55.700;38.270;2022-09-17T08:14:46;4.25;;;2.30;;
55346;SDS011;41218;55.700;38.270;2022-09-17T08:20:09;3.80;;;1.92;;
55346;SDS011;41218;55.700;38.270;2022-09-17T08:25:41;4.00;;;1.85;;
55346;SDS011;41218;55.700;38.270;2022-09-17T08:30:53;6.35;;;2.10;;
55346;SDS011;41218;55.700;38.270;2022-09-17T08:36:20;3.05;;;1.88;;
55346;SDS011;41218;55.700;38.270;2022-09-17T08:47:39;3.75;;;2.08;;
55346;SDS011;41218;55.700;38.270;2022-09-17T09:15:25;4.38;;;1.48;;
55346;SDS011;41218;55.700;38.270;2022-09-17T09:26:45;3.20;;;1.30;;
55346;SDS011;41218;55.700;38.270;2022-09-17T10:00:11;2.88;;;1.00;;
55346;SDS011;41218;55.700;38.270;2022-09-17T10:05:34;2.45;;;0.95;;
55346;SDS011;41218;55.700;38.270;2022-09-17T10:10:36;5.15;;;1.10;;
55346;SDS011;41218;55.700;38.270;2022-09-17T10:16:21;3.13;;;0.98;;
55346;SDS011;41218;55.700;38.270;2022-09-17T10:21:30;4.88;;;1.00;;
55346;SDS011;41218;55.700;38.270;2022-09-17T10:27:22;0.90;;;0.80;;
55346;SDS011;41218;55.700;38.270;2022-09-17T10:32:26;1.67;;;1.00;;
55346;SDS011;41218;55.700;38.270;2022-09-17T10:37:40;2.30;;;1.15;;
55346;SDS011;41218;55.700;38.270;2022-09-17T10:48:58;2.67;;;1.15;;
55346;SDS011;41218;55.700;38.270;2022-09-17T11:11:33;4.65;;;1.00;;
55346;SDS011;41218;55.700;38.270;2022-09-17T11:21:55;2.67;;;1.00;;
55346;SDS011;41218;55.700;38.270;2022-09-17T11:27:16;1.48;;;1.00;;
55346;SDS011;41218;55.700;38.270;2022-09-17T11:32:29;1.90;;;0.95;;
55346;SDS011;41218;55.700;38.270;2022-09-17T11:38:24;6.05;;;1.25;;
55346;SDS011;41218;55.700;38.270;2022-09-17T11:53:50;2.00;;;1.00;;
55346;SDS011;41218;55.700;38.270;2022-09-17T11:59:13;2.60;;;1.10;;
55346;SDS011;41218;55.700;38.270;2022-09-17T12:04:34;3.90;;;0.98;;
55346;SDS011;41218;55.700;38.270;2022-09-17T12:09:38;1.65;;;1.00;;
55346;SDS011;41218;55.700;38.270;2022-09-17T12:20:12;3.38;;;1.10;;
55346;SDS011;41218;55.700;38.270;2022-09-17T12:25:53;5.60;;;1.00;;
55346;SDS011;41218;55.700;38.270;2022-09-17T12:32:08;2.70;;;1.05;;
55346;SDS011;41218;55.700;38.270;2022-09-17T12:37:00;1.20;;;0.70;;
55346;SDS011;41218;55.700;38.270;2022-09-17T12:42:30;4.30;;;0.95;;
55346;SDS011;41218;55.700;38.270;2022-09-17T12:47:48;1.42;;;1.00;;
55346;SDS011;41218;55.700;38.270;2022-09-17T12:53:13;3.60;;;1.10;;
55346;SDS011;41218;55.700;38.270;2022-09-17T13:04:26;4.63;;;1.17;;
55346;SDS011;41218;55.700;38.270;2022-09-17T13:21:02;2.67;;;1.50;;
55346;SDS011;41218;55.700;38.270;2022-09-17T13:26:09;4.90;;;1.40;;
55346;SDS011;41218;55.700;38.270;2022-09-17T13:31:20;4.20;;;1.42;;
55346;SDS011;41218;55.700;38.270;2022-09-17T13:41:53;2.67;;;1.40;;
55346;SDS011;41218;55.700;38.270;2022-09-17T13:52:26;1.65;;;1.23;;
55346;SDS011;41218;55.700;38.270;2022-09-17T13:57:46;2.28;;;1.20;;
55346;SDS011;41218;55.700;38.270;2022-09-17T14:08:06;2.53;;;1.45;;
55346;SDS011;41218;55.700;38.270;2022-09-17T14:13:24;2.60;;;2.08;;
55346;SDS011;41218;55.700;38.270;2022-09-17T14:18:43;2.45;;;1.45;;
55346;SDS011;41218;55.700;38.270;2022-09-17T14:23:46;2.33;;;1.50;;
55346;SDS011;41218;55.700;38.270;2022-09-17T14:28:55;6.93;;;1.65;;
55346;SDS011;41218;55.700;38.270;2022-09-17T14:34:16;3.60;;;1.95;;
55346;SDS011;41218;55.700;38.270;2022-09-17T14:39:28;5.03;;;2.50;;
55346;SDS011;41218;55.700;38.270;2022-09-17T14:44:36;5.03;;;2.95;;
55346;SDS011;41218;55.700;38.270;2022-09-17T14:49:51;5.07;;;2.75;;
55346;SDS011;41218;55.700;38.270;2022-09-17T14:55:09;9.77;;;4.28;;
55346;SDS011;41218;55.700;38.270;2022-09-17T15:00:20;14.73;;;7.95;;
55346;SDS011;41218;55.700;38.270;2022-09-17T15:05:33;10.02;;;5.70;;
55346;SDS011;41218;55.700;38.270;2022-09-17T15:10:47;11.80;;;6.57;;
55346;SDS011;41218;55.700;38.270;2022-09-17T15:16:18;20.55;;;11.13;;
55346;SDS011;41218;55.700;38.270;2022-09-17T15:26:34;29.10;;;14.32;;
55346;SDS011;41218;55.700;38.270;2022-09-17T15:31:39;39.85;;;22.60;;
55346;SDS011;41218;55.700;38.270;2022-09-17T15:42:16;20.60;;;13.52;;
55346;SDS011;41218;55.700;38.270;2022-09-17T15:52:44;6.97;;;4.95;;
55346;SDS011;41218;55.700;38.270;2022-09-17T15:57:48;7.53;;;3.67;;
55346;SDS011;41218;55.700;38.270;2022-09-17T16:02:51;5.28;;;3.30;;
55346;SDS011;41218;55.700;38.270;2022-09-17T16:07:54;7.38;;;3.40;;
55346;SDS011;41218;55.700;38.270;2022-09-17T16:13:19;6.90;;;3.60;;
55346;SDS011;41218;55.700;38.270;2022-09-17T16:18:21;6.38;;;3.53;;
55346;SDS011;41218;55.700;38.270;2022-09-17T16:23:24;6.75;;;3.53;;
55346;SDS011;41218;55.700;38.270;2022-09-17T16:28:25;7.22;;;4.28;;
55346;SDS011;41218;55.700;38.270;2022-09-17T16:33:26;4.38;;;2.70;;
55346;SDS011;41218;55.700;38.270;2022-09-17T16:38:29;7.18;;;3.63;;
55346;SDS011;41218;55.700;38.270;2022-09-17T16:43:30;4.07;;;2.60;;
55346;SDS011;41218;55.700;38.270;2022-09-17T16:48:38;5.15;;;2.53;;
55346;SDS011;41218;55.700;38.270;2022-09-17T16:53:55;5.68;;;2.65;;
55346;SDS011;41218;55.700;38.270;2022-09-17T16:59:04;7.20;;;3.25;;
55346;SDS011;41218;55.700;38.270;2022-09-17T17:04:28;7.78;;;3.55;;
55346;SDS011;41218;55.700;38.270;2022-09-17T17:09:41;4.88;;;3.20;;
55346;SDS011;41218;55.700;38.270;2022-09-17T17:14:46;9.50;;;3.15;;
55346;SDS011;41218;55.700;38.270;2022-09-17T17:19:52;5.50;;;3.08;;
55346;SDS011;41218;55.700;38.270;2022-09-17T17:25:01;6.40;;;3.03;;
55346;SDS011;41218;55.700;38.270;2022-09-17T17:30:06;5.32;;;3.10;;
55346;SDS011;41218;55.700;38.270;2022-09-17T17:35:08;8.00;;;3.20;;
55346;SDS011;41218;55.700;38.270;2022-09-17T17:40:12;6.63;;;3.33;;
55346;SDS011;41218;55.700;38.270;2022-09-17T17:45:25;8.25;;;3.90;;
55346;SDS011;41218;55.700;38.270;2022-09-17T17:50:52;8.48;;;4.35;;
55346;SDS011;41218;55.700;38.270;2022-09-17T17:56:04;14.65;;;6.88;;
55346;SDS011;41218;55.700;38.270;2022-09-17T18:01:20;20.73;;;9.85;;
55346;SDS011;41218;55.700;38.270;2022-09-17T18:06:37;16.83;;;7.95;;
55346;SDS011;41218;55.700;38.270;2022-09-17T18:11:41;12.00;;;6.07;;
55346;SDS011;41218;55.700;38.270;2022-09-17T18:16:42;10.02;;;4.75;;
55346;SDS011;41218;55.700;38.270;2022-09-17T18:21:43;7.50;;;4.18;;
55346;SDS011;41218;55.700;38.270;2022-09-17T18:26:49;7.78;;;3.72;;
55346;SDS011;41218;55.700;38.270;2022-09-17T18:31:50;5.05;;;3.45;;
55346;SDS011;41218;55.700;38.270;2022-09-17T18:36:51;7.75;;;3.53;;
55346;SDS011;41218;55.700;38.270;2022-09-17T18:41:54;6.70;;;3.70;;
55346;SDS011;41218;55.700;38.270;2022-09-17T18:46:55;6.32;;;3.45;;
55346;SDS011;41218;55.700;38.270;2022-09-17T18:51:59;9.90;;;4.03;;
55346;SDS011;41218;55.700;38.270;2022-09-17T18:57:03;6.65;;;3.97;;
55346;SDS011;41218;55.700;38.270;2022-09-17T19:02:04;10.23;;;4.57;;
55346;SDS011;41218;55.700;38.270;2022-09-17T19:07:07;10.25;;;4.60;;
55346;SDS011;41218;55.700;38.270;2022-09-17T19:12:08;7.68;;;3.88;;
55346;SDS011;41218;55.700;38.270;2022-09-17T19:17:12;9.10;;;4.25;;
55346;SDS011;41218;55.700;38.270;2022-09-17T19:22:16;9.40;;;4.10;;
55346;SDS011;41218;55.700;38.270;2022-09-17T19:27:22;7.50;;;4.30;;
55346;SDS011;41218;55.700;38.270;2022-09-17T19:32:24;8.10;;;4.28;;
55346;SDS011;41218;55.700;38.270;2022-09-17T19:37:27;8.65;;;4.68;;
55346;SDS011;41218;55.700;38.270;2022-09-17T19:42:28;7.55;;;4.15;;
55346;SDS011;41218;55.700;38.270;2022-09-17T19:47:31;7.38;;;4.22;;
55346;SDS011;41218;55.700;38.270;2022-09-17T19:52:34;8.10;;;4.35;;
55346;SDS011;41218;55.700;38.270;2022-09-17T19:57:37;7.10;;;4.00;;
55346;SDS011;41218;55.700;38.270;2022-09-17T20:02:37;8.90;;;4.25;;
55346;SDS011;41218;55.700;38.270;2022-09-17T20:07:41;7.35;;;3.97;;
55346;SDS011;41218;55.700;38.270;2022-09-17T20:12:42;9.15;;;4.47;;
55346;SDS011;41218;55.700;38.270;2022-09-17T20:17:42;12.47;;;5.10;;
55346;SDS011;41218;55.700;38.270;2022-09-17T20:22:43;7.30;;;4.25;;
55346;SDS011;41218;55.700;38.270;2022-09-17T20:27:53;8.80;;;4.32;;
55346;SDS011;41218;55.700;38.270;2022-09-17T20:32:54;9.23;;;4.82;;
55346;SDS011;41218;55.700;38.270;2022-09-17T20:37:57;10.15;;;4.50;;
55346;SDS011;41218;55.700;38.270;2022-09-17T20:43:01;10.52;;;5.00;;
55346;SDS011;41218;55.700;38.270;2022-09-17T20:48:16;10.98;;;4.57;;
55346;SDS011;41218;55.700;38.270;2022-09-17T20:53:17;7.23;;;4.30;;
55346;SDS011;41218;55.700;38.270;2022-09-17T20:58:33;9.13;;;4.63;;
55346;SDS011;41218;55.700;38.270;2022-09-17T21:03:56;7.88;;;4.47;;
55346;SDS011;41218;55.700;38.270;2022-09-17T21:09:00;8.82;;;4.80;;
55346;SDS011;41218;55.700;38.270;2022-09-17T21:14:12;8.23;;;5.00;;
55346;SDS011;41218;55.700;38.270;2022-09-17T21:19:17;11.30;;;4.80;;
55346;SDS011;41218;55.700;38.270;2022-09-17T21:24:28;9.60;;;5.18;;
55346;SDS011;41218;55.700;38.270;2022-09-17T21:29:29;12.57;;;4.70;;
55346;SDS011;41218;55.700;38.270;2022-09-17T21:34:29;11.37;;;5.27;;
